Terminal Aerodrome Forecast
Issued by NWS Buffalo, NY

Current Version | Previous Version | Text Only | Print | Product List | Glossary On
Versions: 1 2 3 4 5 6 7 8 9 10 11 12 13 14 15 16 17 18 19 20 21 22 23 24 25 26 27 28 29
295
FTUS41 KBUF 252320
TAFROC
TAF
KROC 252320Z 2600/2624 00000KT P6SM SCT035
      TEMPO 2600/2602 BKN035
     FM260800 00000KT 4SM BR FEW025
     FM261300 19006KT P6SM FEW100
     FM262300 19004KT P6SM BKN120=

USA.gov is the U.S. government's official web portal to all federal, state and local government web resources and services.